Tuesday, September 16, 2014
01:01 UTC
  |  Log In   |  Register Free
Airport Search:

La Guardia Airport
(KLGA)

FAA data valid effective July 24, 2014 until September 18, 2014 (unless otherwise noted).

 
 
 
 
 
 
 
 
 
 
 
 
 
 

Current Aviation Weather for La Guardia Airport (KLGA)

The most recent METAR observation for KLGA was updated at: 0012
METAR Summary (Translated METAR)
KLGA
152351Z 20007KT 10SM BKN250 19/08 A3011 RMK AO2 SLP195 T01890083 10228 20189 55002
KJFK
152351Z 19008KT 10SM FEW080 BKN250 18/09 A3013 RMK AO2 SLP201 T01830094 10217 20183 55003
(9.3 nm SE from KLGA)
KTEB
152351Z 19005KT 10SM CLR 18/09 A3010 RMK AO2 SLP192 T01830089 10228 20183 55002
(9.6 nm NW from KLGA)
TAF Summary (Translated TAF)
KLGA
151942Z 1520/1618 VRB05KT P6SM FEW060 SCT250 FM152200 17006KT P6SM FEW060 SCT250 FM160600 21006KT P6SM BKN150 FM161000 23006KT P6SM VCSH BKN050 FM161400 29007KT P6SM BKN070 FM161700 31009KT P6SM BKN100
KJFK
(9.3 nm SE from KLGA)
151942Z 1520/1624 19009KT P6SM FEW060 SCT250 FM160600 23006KT P6SM BKN150 FM161000 25006KT P6SM VCSH BKN050 FM161400 28008KT P6SM BKN070 FM161700 30010KT P6SM BKN100 FM162000 32009KT P6SM SKC
  Airport Weather Conditions for KLGA

 Current Weather at LGA
66° F
Mostly Cloudy
South winds at 8.1 mph
LGA NOAA Radar

Pressure: 30.11 in
Humidity: 50%
Wind: South at 8.1 MPH (7 KT)
Dew Point: 46.9°F
Visibility: 10.00 mi


Airport Weather Forecast for KLGA

Translated METAR and TAF for KLGA
Translated METAR for KLGA (0055 UTC 16 September 2014)
found at http://aviationweather.gov/adds/metars/
 
METAR text: KLGA 160051Z 18010KT 10SM SCT150 BKN250 18/09 A3010 RMK AO2 SLP191 T01830094
Conditions at: KLGA (NYC/LA GUARDIA , NY, US) observed 0051 UTC 16 September 2014
Temperature: 18.3°C (65°F)
Dewpoint: 9.4°C (49°F) [RH = 56%]
Pressure (altimeter): 30.10 inches Hg (1019.4 mb)
[Sea-level pressure: 1019.1 mb]
Winds: from the S (180 degrees) at 12 MPH (10 knots; 5.2 m/s)
Visibility: 10 or more miles (16+ km)
Ceiling: 25000 feet AGL
Clouds: scattered clouds at 15000 feet AGL
broken clouds at 25000 feet AGL
Weather: no significant weather observed at this time
Translated TAF for KLGA
Forecast for: KLGA (NYC/LA GUARDIA , NY, US)
TAF Text: KLGA 152330Z 1600/1624 20008KT P6SM FEW060 BKN250
Forecast period: 0000 to 0600 UTC 16 September 2014
Forecast type: FROM: standard forecast or significant change
Winds: from the SSW (200 degrees) at 9 MPH (8 knots; 4.2 m/s)
Visibility: 6 or more miles (10+ km)
Ceiling: 25000 feet AGL
Clouds: few clouds at 6000 feet AGL
broken clouds at 25000 feet AGL
Weather: no significant weather forecast for this period
TAF Text: FM160600 22005KT P6SM SCT050 OVC150
Forecast period: 0600 to 1000 UTC 16 September 2014
Forecast type: FROM: standard forecast or significant change
Winds: from the SW (220 degrees) at 6 MPH (5 knots; 2.6 m/s)
Visibility: 6 or more miles (10+ km)
Ceiling: 15000 feet AGL
Clouds: scattered clouds at 5000 feet AGL
overcast cloud deck at 15000 feet AGL
Weather: no significant weather forecast for this period
TAF Text: FM161000 VRB04KT P6SM VCSH BKN050 OVC150
Forecast period: 1000 to 1500 UTC 16 September 2014
Forecast type: FROM: standard forecast or significant change
Winds: variable direction winds at 5 MPH (4 knots; 2.1 m/s)
Visibility: 6 or more miles (10+ km)
Ceiling: 5000 feet AGL
Clouds: broken clouds at 5000 feet AGL
overcast cloud deck at 15000 feet AGL
Weather: VCSH  (showers in vicinity)
TAF Text: FM161500 32009KT P6SM BKN070 BKN150
Forecast period: 1500 to 2000 UTC 16 September 2014
Forecast type: FROM: standard forecast or significant change
Winds: from the NW (320 degrees) at 10 MPH (9 knots; 4.7 m/s)
Visibility: 6 or more miles (10+ km)
Ceiling: 7000 feet AGL
Clouds: broken clouds at 7000 feet AGL
broken clouds at 15000 feet AGL
Weather: no significant weather forecast for this period
TAF Text: FM162000 26008KT P6SM SCT070 SCT150
Forecast period: 2000 UTC 16 September 2014 to 0000 UTC 17 September 2014
Forecast type: FROM: standard forecast or significant change
Winds: from the W (260 degrees) at 9 MPH (8 knots; 4.2 m/s)
Visibility: 6 or more miles (10+ km)
Clouds: scattered clouds at 7000 feet AGL
scattered clouds at 15000 feet AGL
Weather: no significant weather forecast for this period

Find All Airport Services Find A Hotel Find A Rental Car Find A Golf Course Find A Restaurant $100 Hamburger



FBO's on the Field
FBO Company Facility Photos Services Transportation Aviation Fuel Prices: Prices include tax
Catering Weather Repair Courtesy Rental Type 100LL JetA JetA+ MOGAS 8087
 
Sheltair

This FBO has not yet been rated
FS:Avfuel
Last Updated: Aug-14
Login to update fuel prices
SS:
Contact SheltairMore FBO Information
 
Add another FBO Facility Photos Catering Weather Repair Courtesy Rental Type 100LL JetA JetA+ MOGAS 8087
Services Transportation Aviation Fuel Prices: Prices include tax


model-print
model-print
model-print
model-print